Appleton, Arkansas
Current Conditions -  °F | °C
As of 1:09 AM on Thursday 18 Dec 2014 (Local Time) from KRUE Reporting Station
Unknown Precip Unknown Precip  
Wind Chill: 31°   Ceiling: 5000
Heat Index: 36°   Visibility: 10mi
Dew Point: 33°   Wind: 6mph
Humidity: 89%   Direction: 110°ESE
Pressure: 30.22"   Gusts: NA
Location:  35.2384°N, 92.9429°W
Report Text: KRUE 180709Z AUTO 11005KT 10SM UP SCT006 SCT011 OVC050 02/01 A3022 RMK AO2 P0000 T00220006
Loading
Personal Weather Stations






























Interactive Weather Map New forecast layout! Learn more

10-Day Weather Forecast

Advertisements
Track Severe Weather on mobile